sensor_id;sensor_type;location;lat;lon;timestamp;temperature;humidity
70089;HTU21D;57460;47.134;19.888;2023-12-04T00:00:03;-2.21;69.48
70089;HTU21D;57460;47.134;19.888;2023-12-04T00:02:30;-2.21;69.90
70089;HTU21D;57460;47.134;19.888;2023-12-04T00:04:55;-2.23;69.61
70089;HTU21D;57460;47.134;19.888;2023-12-04T00:07:21;-2.20;69.29
70089;HTU21D;57460;47.134;19.888;2023-12-04T00:09:47;-2.34;70.55
70089;HTU21D;57460;47.134;19.888;2023-12-04T00:12:12;-2.29;69.78
70089;HTU21D;57460;47.134;19.888;2023-12-04T00:14:38;-2.27;69.41
70089;HTU21D;57460;47.134;19.888;2023-12-04T00:17:04;-2.29;70.19
70089;HTU21D;57460;47.134;19.888;2023-12-04T00:19:30;-2.26;69.83
70089;HTU21D;57460;47.134;19.888;2023-12-04T00:21:55;-2.32;70.81
70089;HTU21D;57460;47.134;19.888;2023-12-04T00:24:21;-2.42;71.53
70089;HTU21D;57460;47.134;19.888;2023-12-04T00:26:47;-2.33;69.83
70089;HTU21D;57460;47.134;19.888;2023-12-04T00:29:12;-2.37;71.07
70089;HTU21D;57460;47.134;19.888;2023-12-04T00:31:38;-2.30;70.12
70089;HTU21D;57460;47.134;19.888;2023-12-04T00:34:04;-2.32;70.56
70089;HTU21D;57460;47.134;19.888;2023-12-04T00:36:29;-2.38;70.38
70089;HTU21D;57460;47.134;19.888;2023-12-04T00:38:55;-2.36;70.27
70089;HTU21D;57460;47.134;19.888;2023-12-04T00:41:21;-2.41;70.84
70089;HTU21D;57460;47.134;19.888;2023-12-04T00:43:46;-2.37;70.19
70089;HTU21D;57460;47.134;19.888;2023-12-04T00:46:12;-2.43;70.17
70089;HTU21D;57460;47.134;19.888;2023-12-04T00:48:38;-2.47;71.06
70089;HTU21D;57460;47.134;19.888;2023-12-04T00:51:04;-2.49;70.96
70089;HTU21D;57460;47.134;19.888;2023-12-04T00:53:29;-2.42;70.07
70089;HTU21D;57460;47.134;19.888;2023-12-04T00:55:55;-2.37;69.70
70089;HTU21D;57460;47.134;19.888;2023-12-04T00:58:21;-2.50;71.49
70089;HTU21D;57460;47.134;19.888;2023-12-04T01:00:47;-2.44;70.55
70089;HTU21D;57460;47.134;19.888;2023-12-04T01:03:14;-2.44;70.19
70089;HTU21D;57460;47.134;19.888;2023-12-04T01:05:40;-2.46;70.50
70089;HTU21D;57460;47.134;19.888;2023-12-04T01:08:05;-2.51;70.45
70089;HTU21D;57460;47.134;19.888;2023-12-04T01:10:31;-2.58;70.67
70089;HTU21D;57460;47.134;19.888;2023-12-04T01:12:57;-2.58;70.74
70089;HTU21D;57460;47.134;19.888;2023-12-04T01:15:23;-2.56;70.91
70089;HTU21D;57460;47.134;19.888;2023-12-04T01:17:49;-2.52;70.23
70089;HTU21D;57460;47.134;19.888;2023-12-04T01:20:15;-2.59;70.13
70089;HTU21D;57460;47.134;19.888;2023-12-04T01:22:41;-2.64;70.73
70089;HTU21D;57460;47.134;19.888;2023-12-04T01:25:07;-2.68;70.77
70089;HTU21D;57460;47.134;19.888;2023-12-04T01:27:33;-2.69;70.48
70089;HTU21D;57460;47.134;19.888;2023-12-04T01:30:01;-2.69;70.68
70089;HTU21D;57460;47.134;19.888;2023-12-04T01:32:27;-2.74;70.29
70089;HTU21D;57460;47.134;19.888;2023-12-04T01:34:53;-2.79;70.40
70089;HTU21D;57460;47.134;19.888;2023-12-04T01:37:18;-2.94;70.61
70089;HTU21D;57460;47.134;19.888;2023-12-04T01:39:44;-3.00;72.24
70089;HTU21D;57460;47.134;19.888;2023-12-04T01:42:10;-2.96;71.90
70089;HTU21D;57460;47.134;19.888;2023-12-04T01:44:36;-3.02;72.03
70089;HTU21D;57460;47.134;19.888;2023-12-04T01:47:03;-3.02;71.51
70089;HTU21D;57460;47.134;19.888;2023-12-04T01:49:31;-3.04;71.44
70089;HTU21D;57460;47.134;19.888;2023-12-04T01:51:57;-3.03;71.15
70089;HTU21D;57460;47.134;19.888;2023-12-04T01:54:23;-3.04;71.84
70089;HTU21D;57460;47.134;19.888;2023-12-04T01:56:49;-3.02;71.13
70089;HTU21D;57460;47.134;19.888;2023-12-04T01:59:16;-3.06;71.06
70089;HTU21D;57460;47.134;19.888;2023-12-04T02:01:42;-3.11;71.08
70089;HTU21D;57460;47.134;19.888;2023-12-04T02:04:08;-3.13;71.37
70089;HTU21D;57460;47.134;19.888;2023-12-04T02:06:34;-3.16;71.53
70089;HTU21D;57460;47.134;19.888;2023-12-04T02:09:01;-3.22;71.86
70089;HTU21D;57460;47.134;19.888;2023-12-04T02:11:27;-3.22;72.60
70089;HTU21D;57460;47.134;19.888;2023-12-04T02:13:53;-3.20;72.19
70089;HTU21D;57460;47.134;19.888;2023-12-04T02:16:20;-3.24;72.74
70089;HTU21D;57460;47.134;19.888;2023-12-04T02:18:50;-3.22;72.14
70089;HTU21D;57460;47.134;19.888;2023-12-04T02:21:16;-3.24;72.58
70089;HTU21D;57460;47.134;19.888;2023-12-04T02:23:41;-3.19;71.67
70089;HTU21D;57460;47.134;19.888;2023-12-04T02:26:15;-3.22;71.56
70089;HTU21D;57460;47.134;19.888;2023-12-04T02:28:48;-3.22;71.32
70089;HTU21D;57460;47.134;19.888;2023-12-04T02:31:18;-3.30;71.46
70089;HTU21D;57460;47.134;19.888;2023-12-04T02:33:48;-3.34;71.24
70089;HTU21D;57460;47.134;19.888;2023-12-04T02:36:17;-3.41;71.70
70089;HTU21D;57460;47.134;19.888;2023-12-04T02:38:45;-3.49;72.70
70089;HTU21D;57460;47.134;19.888;2023-12-04T02:41:11;-3.49;72.31
70089;HTU21D;57460;47.134;19.888;2023-12-04T02:43:37;-3.46;72.14
70089;HTU21D;57460;47.134;19.888;2023-12-04T02:46:03;-3.43;72.19
70089;HTU21D;57460;47.134;19.888;2023-12-04T02:48:28;-3.38;72.24
70089;HTU21D;57460;47.134;19.888;2023-12-04T02:50:54;-3.33;71.80
70089;HTU21D;57460;47.134;19.888;2023-12-04T02:53:21;-3.33;71.72
70089;HTU21D;57460;47.134;19.888;2023-12-04T02:55:47;-3.27;71.40
70089;HTU21D;57460;47.134;19.888;2023-12-04T02:58:13;-3.26;70.96
70089;HTU21D;57460;47.134;19.888;2023-12-04T03:00:39;-3.28;70.95
70089;HTU21D;57460;47.134;19.888;2023-12-04T03:03:04;-3.41;71.26
70089;HTU21D;57460;47.134;19.888;2023-12-04T03:05:30;-3.49;72.23
70089;HTU21D;57460;47.134;19.888;2023-12-04T03:07:56;-3.55;73.20
70089;HTU21D;57460;47.134;19.888;2023-12-04T03:10:22;-3.60;72.96
70089;HTU21D;57460;47.134;19.888;2023-12-04T03:12:47;-3.69;72.95
70089;HTU21D;57460;47.134;19.888;2023-12-04T03:15:13;-3.66;72.58
70089;HTU21D;57460;47.134;19.888;2023-12-04T03:17:39;-3.67;73.61
70089;HTU21D;57460;47.134;19.888;2023-12-04T03:20:05;-3.65;73.48
70089;HTU21D;57460;47.134;19.888;2023-12-04T03:22:36;-3.62;73.35
70089;HTU21D;57460;47.134;19.888;2023-12-04T03:25:02;-3.63;73.01
70089;HTU21D;57460;47.134;19.888;2023-12-04T03:27:28;-3.64;72.87
70089;HTU21D;57460;47.134;19.888;2023-12-04T03:29:54;-3.61;72.32
70089;HTU21D;57460;47.134;19.888;2023-12-04T03:32:20;-3.63;72.80
70089;HTU21D;57460;47.134;19.888;2023-12-04T03:34:45;-3.60;72.07
70089;HTU21D;57460;47.134;19.888;2023-12-04T03:37:11;-3.56;72.09
70089;HTU21D;57460;47.134;19.888;2023-12-04T03:39:37;-3.55;72.86
70089;HTU21D;57460;47.134;19.888;2023-12-04T03:42:03;-3.60;73.37
70089;HTU21D;57460;47.134;19.888;2023-12-04T03:44:29;-3.57;72.90
70089;HTU21D;57460;47.134;19.888;2023-12-04T03:46:54;-3.53;73.09
70089;HTU21D;57460;47.134;19.888;2023-12-04T03:49:20;-3.50;72.38
70089;HTU21D;57460;47.134;19.888;2023-12-04T03:51:46;-3.49;72.58
70089;HTU21D;57460;47.134;19.888;2023-12-04T03:54:12;-3.47;72.46
70089;HTU21D;57460;47.134;19.888;2023-12-04T03:56:39;-3.43;71.97
70089;HTU21D;57460;47.134;19.888;2023-12-04T03:59:05;-3.42;71.36
70089;HTU21D;57460;47.134;19.888;2023-12-04T04:01:31;-3.43;71.55
70089;HTU21D;57460;47.134;19.888;2023-12-04T04:03:57;-3.46;71.96
70089;HTU21D;57460;47.134;19.888;2023-12-04T04:06:23;-3.52;72.09
70089;HTU21D;57460;47.134;19.888;2023-12-04T04:08:49;-3.53;71.91
70089;HTU21D;57460;47.134;19.888;2023-12-04T04:11:14;-3.57;71.90
70089;HTU21D;57460;47.134;19.888;2023-12-04T04:13:40;-3.60;71.84
70089;HTU21D;57460;47.134;19.888;2023-12-04T04:16:06;-3.68;72.74
70089;HTU21D;57460;47.134;19.888;2023-12-04T04:18:32;-3.68;72.56
70089;HTU21D;57460;47.134;19.888;2023-12-04T04:20:58;-3.70;73.08
70089;HTU21D;57460;47.134;19.888;2023-12-04T04:23:23;-3.69;73.15
70089;HTU21D;57460;47.134;19.888;2023-12-04T04:25:49;-3.67;72.83
70089;HTU21D;57460;47.134;19.888;2023-12-04T04:28:15;-3.65;73.12
70089;HTU21D;57460;47.134;19.888;2023-12-04T04:30:41;-3.65;73.21
70089;HTU21D;57460;47.134;19.888;2023-12-04T04:33:06;-3.62;73.06
70089;HTU21D;57460;47.134;19.888;2023-12-04T04:35:32;-3.63;73.58
70089;HTU21D;57460;47.134;19.888;2023-12-04T04:37:58;-3.62;72.99
70089;HTU21D;57460;47.134;19.888;2023-12-04T04:40:24;-3.61;72.90
70089;HTU21D;57460;47.134;19.888;2023-12-04T04:42:49;-3.63;72.74
70089;HTU21D;57460;47.134;19.888;2023-12-04T04:45:15;-3.62;72.18
70089;HTU21D;57460;47.134;19.888;2023-12-04T04:47:41;-3.64;71.47
70089;HTU21D;57460;47.134;19.888;2023-12-04T04:50:07;-3.70;71.85
70089;HTU21D;57460;47.134;19.888;2023-12-04T04:52:33;-3.78;72.92
70089;HTU21D;57460;47.134;19.888;2023-12-04T04:54:59;-3.76;72.42
70089;HTU21D;57460;47.134;19.888;2023-12-04T04:57:25;-3.79;72.17
70089;HTU21D;57460;47.134;19.888;2023-12-04T04:59:50;-3.79;72.27
70089;HTU21D;57460;47.134;19.888;2023-12-04T05:02:16;-3.81;72.87
70089;HTU21D;57460;47.134;19.888;2023-12-04T05:04:42;-3.80;73.81
70089;HTU21D;57460;47.134;19.888;2023-12-04T05:07:08;-3.84;73.35
70089;HTU21D;57460;47.134;19.888;2023-12-04T05:09:34;-3.90;74.11
70089;HTU21D;57460;47.134;19.888;2023-12-04T05:12:00;-3.90;72.93
70089;HTU21D;57460;47.134;19.888;2023-12-04T05:14:25;-3.91;73.12
70089;HTU21D;57460;47.134;19.888;2023-12-04T05:16:52;-3.87;73.27
70089;HTU21D;57460;47.134;19.888;2023-12-04T05:19:18;-3.83;73.06
70089;HTU21D;57460;47.134;19.888;2023-12-04T05:21:44;-3.86;73.04
70089;HTU21D;57460;47.134;19.888;2023-12-04T05:24:09;-3.85;72.49
70089;HTU21D;57460;47.134;19.888;2023-12-04T05:26:35;-3.86;72.25
70089;HTU21D;57460;47.134;19.888;2023-12-04T05:29:01;-3.89;71.97
70089;HTU21D;57460;47.134;19.888;2023-12-04T05:31:27;-3.86;72.09
70089;HTU21D;57460;47.134;19.888;2023-12-04T05:33:53;-3.87;72.89
70089;HTU21D;57460;47.134;19.888;2023-12-04T05:36:18;-3.84;72.72
70089;HTU21D;57460;47.134;19.888;2023-12-04T05:38:44;-3.80;72.57
70089;HTU21D;57460;47.134;19.888;2023-12-04T05:41:10;-3.79;72.33
70089;HTU21D;57460;47.134;19.888;2023-12-04T05:43:36;-3.80;71.83
70089;HTU21D;57460;47.134;19.888;2023-12-04T05:46:02;-3.86;72.20
70089;HTU21D;57460;47.134;19.888;2023-12-04T05:48:27;-3.89;72.09
70089;HTU21D;57460;47.134;19.888;2023-12-04T05:50:53;-3.98;73.92
70089;HTU21D;57460;47.134;19.888;2023-12-04T05:53:19;-4.02;73.45
70089;HTU21D;57460;47.134;19.888;2023-12-04T05:55:45;-3.97;72.67
70089;HTU21D;57460;47.134;19.888;2023-12-04T05:58:11;-3.95;72.31
70089;HTU21D;57460;47.134;19.888;2023-12-04T06:00:37;-3.89;72.06
70089;HTU21D;57460;47.134;19.888;2023-12-04T06:03:03;-3.84;72.02
70089;HTU21D;57460;47.134;19.888;2023-12-04T06:05:29;-3.84;71.85
70089;HTU21D;57460;47.134;19.888;2023-12-04T06:07:55;-3.87;71.92
70089;HTU21D;57460;47.134;19.888;2023-12-04T06:10:20;-3.86;71.82
70089;HTU21D;57460;47.134;19.888;2023-12-04T06:12:46;-3.90;72.64
70089;HTU21D;57460;47.134;19.888;2023-12-04T06:15:12;-3.94;73.04
70089;HTU21D;57460;47.134;19.888;2023-12-04T06:17:38;-3.94;72.66
70089;HTU21D;57460;47.134;19.888;2023-12-04T06:20:04;-4.01;73.60
70089;HTU21D;57460;47.134;19.888;2023-12-04T06:22:32;-3.99;73.32
70089;HTU21D;57460;47.134;19.888;2023-12-04T06:24:58;-3.93;73.00
70089;HTU21D;57460;47.134;19.888;2023-12-04T06:27:24;-3.84;72.57
70089;HTU21D;57460;47.134;19.888;2023-12-04T06:29:50;-3.80;73.08
70089;HTU21D;57460;47.134;19.888;2023-12-04T06:32:17;-3.77;72.87
70089;HTU21D;57460;47.134;19.888;2023-12-04T06:34:43;-3.77;72.85
70089;HTU21D;57460;47.134;19.888;2023-12-04T06:37:13;-3.79;72.57
70089;HTU21D;57460;47.134;19.888;2023-12-04T06:39:40;-3.75;72.41
70089;HTU21D;57460;47.134;19.888;2023-12-04T06:42:07;-3.76;72.91
70089;HTU21D;57460;47.134;19.888;2023-12-04T06:44:34;-3.74;73.31
70089;HTU21D;57460;47.134;19.888;2023-12-04T06:47:01;-3.55;73.48
70089;HTU21D;57460;47.134;19.888;2023-12-04T06:49:32;-3.26;72.48
70089;HTU21D;57460;47.134;19.888;2023-12-04T06:51:59;-3.13;71.10
70089;HTU21D;57460;47.134;19.888;2023-12-04T06:54:25;-3.10;71.13
70089;HTU21D;57460;47.134;19.888;2023-12-04T06:56:51;-3.12;71.80
70089;HTU21D;57460;47.134;19.888;2023-12-04T06:59:20;-3.09;71.71
70089;HTU21D;57460;47.134;19.888;2023-12-04T07:01:46;-3.09;71.88
70089;HTU21D;57460;47.134;19.888;2023-12-04T07:04:12;-3.00;71.89
70089;HTU21D;57460;47.134;19.888;2023-12-04T07:06:40;-2.88;71.75
70089;HTU21D;57460;47.134;19.888;2023-12-04T07:09:06;-2.74;71.42
70089;HTU21D;57460;47.134;19.888;2023-12-04T07:11:35;-2.62;71.36
70089;HTU21D;57460;47.134;19.888;2023-12-04T07:14:01;-2.49;71.02
70089;HTU21D;57460;47.134;19.888;2023-12-04T07:16:26;-2.41;70.92
70089;HTU21D;57460;47.134;19.888;2023-12-04T07:18:52;-2.31;70.90
70089;HTU21D;57460;47.134;19.888;2023-12-04T07:21:18;-2.19;70.81
70089;HTU21D;57460;47.134;19.888;2023-12-04T07:23:44;-2.05;70.69
70089;HTU21D;57460;47.134;19.888;2023-12-04T07:26:10;-1.95;70.33
70089;HTU21D;57460;47.134;19.888;2023-12-04T07:28:36;-1.88;70.39
70089;HTU21D;57460;47.134;19.888;2023-12-04T07:31:02;-1.70;69.94
70089;HTU21D;57460;47.134;19.888;2023-12-04T07:33:28;-1.71;69.58
70089;HTU21D;57460;47.134;19.888;2023-12-04T07:35:54;-1.73;69.94
70089;HTU21D;57460;47.134;19.888;2023-12-04T07:38:20;-1.63;70.37
70089;HTU21D;57460;47.134;19.888;2023-12-04T07:40:46;-1.49;70.34
70089;HTU21D;57460;47.134;19.888;2023-12-04T07:43:12;-1.34;70.19
70089;HTU21D;57460;47.134;19.888;2023-12-04T07:45:40;-1.20;69.62
70089;HTU21D;57460;47.134;19.888;2023-12-04T07:48:06;-1.05;69.92
70089;HTU21D;57460;47.134;19.888;2023-12-04T07:50:32;-0.77;69.15
70089;HTU21D;57460;47.134;19.888;2023-12-04T07:52:59;-0.53;67.95
70089;HTU21D;57460;47.134;19.888;2023-12-04T07:55:25;-0.23;67.25
70089;HTU21D;57460;47.134;19.888;2023-12-04T07:57:51;-0.06;65.50
70089;HTU21D;57460;47.134;19.888;2023-12-04T08:00:17;-0.05;66.17
70089;HTU21D;57460;47.134;19.888;2023-12-04T08:02:48;-0.14;66.55
70089;HTU21D;57460;47.134;19.888;2023-12-04T08:05:14;-0.11;66.73
70089;HTU21D;57460;47.134;19.888;2023-12-04T08:07:40;-0.01;67.06
70089;HTU21D;57460;47.134;19.888;2023-12-04T08:10:06;0.23;66.40
70089;HTU21D;57460;47.134;19.888;2023-12-04T08:12:33;0.24;66.14
70089;HTU21D;57460;47.134;19.888;2023-12-04T08:15:02;0.30;66.62
70089;HTU21D;57460;47.134;19.888;2023-12-04T08:17:28;0.42;66.26
70089;HTU21D;57460;47.134;19.888;2023-12-04T08:19:54;0.64;65.10
70089;HTU21D;57460;47.134;19.888;2023-12-04T08:22:20;0.82;65.11
70089;HTU21D;57460;47.134;19.888;2023-12-04T08:24:46;1.05;64.33
70089;HTU21D;57460;47.134;19.888;2023-12-04T08:27:11;1.05;63.66
70089;HTU21D;57460;47.134;19.888;2023-12-04T08:29:39;1.13;64.13
70089;HTU21D;57460;47.134;19.888;2023-12-04T08:32:06;1.38;64.18
70089;HTU21D;57460;47.134;19.888;2023-12-04T08:34:31;1.56;63.36
70089;HTU21D;57460;47.134;19.888;2023-12-04T08:36:57;1.52;63.57
70089;HTU21D;57460;47.134;19.888;2023-12-04T08:39:23;1.52;64.12
70089;HTU21D;57460;47.134;19.888;2023-12-04T08:41:49;1.51;61.73
70089;HTU21D;57460;47.134;19.888;2023-12-04T08:44:15;1.60;63.27
70089;HTU21D;57460;47.134;19.888;2023-12-04T08:46:42;1.72;64.01
70089;HTU21D;57460;47.134;19.888;2023-12-04T08:49:07;2.13;63.44
70089;HTU21D;57460;47.134;19.888;2023-12-04T08:51:33;2.70;61.61
70089;HTU21D;57460;47.134;19.888;2023-12-04T08:53:59;2.86;60.13
70089;HTU21D;57460;47.134;19.888;2023-12-04T08:56:25;3.16;60.34
70089;HTU21D;57460;47.134;19.888;2023-12-04T08:58:50;3.25;60.00
70089;HTU21D;57460;47.134;19.888;2023-12-04T09:01:16;3.53;59.79
70089;HTU21D;57460;47.134;19.888;2023-12-04T09:03:42;3.99;57.31
70089;HTU21D;57460;47.134;19.888;2023-12-04T09:06:08;4.06;56.18
70089;HTU21D;57460;47.134;19.888;2023-12-04T09:08:34;3.78;55.63
70089;HTU21D;57460;47.134;19.888;2023-12-04T09:11:00;3.44;59.46
70089;HTU21D;57460;47.134;19.888;2023-12-04T09:13:26;3.61;58.84
70089;HTU21D;57460;47.134;19.888;2023-12-04T09:15:52;4.04;59.28
70089;HTU21D;57460;47.134;19.888;2023-12-04T09:18:18;4.53;57.27
70089;HTU21D;57460;47.134;19.888;2023-12-04T09:20:44;4.69;53.33
70089;HTU21D;57460;47.134;19.888;2023-12-04T09:23:10;4.52;56.56
70089;HTU21D;57460;47.134;19.888;2023-12-04T09:25:36;5.03;56.99
70089;HTU21D;57460;47.134;19.888;2023-12-04T09:28:01;5.75;54.00
70089;HTU21D;57460;47.134;19.888;2023-12-04T09:30:28;6.49;53.17
70089;HTU21D;57460;47.134;19.888;2023-12-04T09:32:54;6.98;47.99
70089;HTU21D;57460;47.134;19.888;2023-12-04T09:35:20;6.78;48.07
70089;HTU21D;57460;47.134;19.888;2023-12-04T09:37:45;6.33;51.04
70089;HTU21D;57460;47.134;19.888;2023-12-04T09:40:13;6.12;50.85
70089;HTU21D;57460;47.134;19.888;2023-12-04T09:42:39;5.91;50.32
70089;HTU21D;57460;47.134;19.888;2023-12-04T09:45:05;6.28;50.61
70089;HTU21D;57460;47.134;19.888;2023-12-04T09:47:33;6.28;51.91
70089;HTU21D;57460;47.134;19.888;2023-12-04T09:50:00;5.65;52.63
70089;HTU21D;57460;47.134;19.888;2023-12-04T09:52:30;5.50;53.51
70089;HTU21D;57460;47.134;19.888;2023-12-04T09:54:56;5.77;52.69
70089;HTU21D;57460;47.134;19.888;2023-12-04T09:57:23;6.52;48.65
70089;HTU21D;57460;47.134;19.888;2023-12-04T09:59:52;7.16;49.66
70089;HTU21D;57460;47.134;19.888;2023-12-04T10:02:19;7.09;44.69
70089;HTU21D;57460;47.134;19.888;2023-12-04T10:04:46;6.52;50.59
70089;HTU21D;57460;47.134;19.888;2023-12-04T10:07:12;6.26;52.30
70089;HTU21D;57460;47.134;19.888;2023-12-04T10:09:38;6.72;52.29
70089;HTU21D;57460;47.134;19.888;2023-12-04T10:12:06;7.47;51.34
70089;HTU21D;57460;47.134;19.888;2023-12-04T10:14:32;8.35;44.86
70089;HTU21D;57460;47.134;19.888;2023-12-04T10:16:57;8.35;47.59
70089;HTU21D;57460;47.134;19.888;2023-12-04T10:19:25;8.44;46.96
70089;HTU21D;57460;47.134;19.888;2023-12-04T10:21:53;8.91;47.65
70089;HTU21D;57460;47.134;19.888;2023-12-04T10:24:35;9.33;40.65
70089;HTU21D;57460;47.134;19.888;2023-12-04T10:27:02;8.88;38.30
70089;HTU21D;57460;47.134;19.888;2023-12-04T10:29:44;8.03;48.54
70089;HTU21D;57460;47.134;19.888;2023-12-04T10:32:11;7.87;48.00
70089;HTU21D;57460;47.134;19.888;2023-12-04T10:34:37;8.36;46.81
70089;HTU21D;57460;47.134;19.888;2023-12-04T10:37:04;8.81;42.15
70089;HTU21D;57460;47.134;19.888;2023-12-04T10:39:31;9.60;45.33
70089;HTU21D;57460;47.134;19.888;2023-12-04T10:42:02;10.10;41.51
70089;HTU21D;57460;47.134;19.888;2023-12-04T10:44:30;10.41;37.31
70089;HTU21D;57460;47.134;19.888;2023-12-04T10:46:57;10.96;36.21
70089;HTU21D;57460;47.134;19.888;2023-12-04T10:49:27;11.69;39.32
70089;HTU21D;57460;47.134;19.888;2023-12-04T10:51:57;12.74;37.45
70089;HTU21D;57460;47.134;19.888;2023-12-04T10:54:27;13.52;36.02
70089;HTU21D;57460;47.134;19.888;2023-12-04T10:57:01;14.05;35.53
70089;HTU21D;57460;47.134;19.888;2023-12-04T10:59:36;14.23;29.66
70089;HTU21D;57460;47.134;19.888;2023-12-04T11:02:06;14.26;35.65
70089;HTU21D;57460;47.134;19.888;2023-12-04T11:04:36;15.00;32.54
70089;HTU21D;57460;47.134;19.888;2023-12-04T11:07:03;14.92;30.74
70089;HTU21D;57460;47.134;19.888;2023-12-04T11:09:35;13.22;37.05
70089;HTU21D;57460;47.134;19.888;2023-12-04T11:12:06;11.92;39.75
70089;HTU21D;57460;47.134;19.888;2023-12-04T11:14:42;11.28;39.07
70089;HTU21D;57460;47.134;19.888;2023-12-04T11:17:14;10.37;42.28
70089;HTU21D;57460;47.134;19.888;2023-12-04T11:20:04;9.03;46.01
70089;HTU21D;57460;47.134;19.888;2023-12-04T11:22:34;8.37;48.18
70089;HTU21D;57460;47.134;19.888;2023-12-04T11:25:06;7.79;44.41
70089;HTU21D;57460;47.134;19.888;2023-12-04T11:27:34;7.10;48.69
70089;HTU21D;57460;47.134;19.888;2023-12-04T11:30:02;6.57;52.06
70089;HTU21D;57460;47.134;19.888;2023-12-04T11:32:28;6.58;52.15
70089;HTU21D;57460;47.134;19.888;2023-12-04T11:34:57;6.40;49.93
70089;HTU21D;57460;47.134;19.888;2023-12-04T11:37:25;6.40;51.04
70089;HTU21D;57460;47.134;19.888;2023-12-04T11:39:51;6.22;51.28
70089;HTU21D;57460;47.134;19.888;2023-12-04T11:42:24;5.86;46.80
70089;HTU21D;57460;47.134;19.888;2023-12-04T11:45:00;5.64;52.37
70089;HTU21D;57460;47.134;19.888;2023-12-04T11:47:28;5.56;54.59
70089;HTU21D;57460;47.134;19.888;2023-12-04T11:49:54;5.59;51.08
70089;HTU21D;57460;47.134;19.888;2023-12-04T11:52:33;5.47;49.18
70089;HTU21D;57460;47.134;19.888;2023-12-04T11:55:04;5.33;48.76
70089;HTU21D;57460;47.134;19.888;2023-12-04T11:57:38;5.07;51.68
70089;HTU21D;57460;47.134;19.888;2023-12-04T12:00:10;5.00;53.55
70089;HTU21D;57460;47.134;19.888;2023-12-04T12:05:13;4.79;54.47
70089;HTU21D;57460;47.134;19.888;2023-12-04T12:07:39;4.50;51.68
70089;HTU21D;57460;47.134;19.888;2023-12-04T12:10:05;4.52;54.38
70089;HTU21D;57460;47.134;19.888;2023-12-04T12:12:31;4.28;50.05
70089;HTU21D;57460;47.134;19.888;2023-12-04T12:14:58;4.28;53.87
70089;HTU21D;57460;47.134;19.888;2023-12-04T12:17:24;4.36;52.31
70089;HTU21D;57460;47.134;19.888;2023-12-04T12:19:50;4.44;53.91
70089;HTU21D;57460;47.134;19.888;2023-12-04T12:22:17;4.35;51.99
70089;HTU21D;57460;47.134;19.888;2023-12-04T12:24:43;4.27;53.03
70089;HTU21D;57460;47.134;19.888;2023-12-04T12:27:09;4.29;53.51
70089;HTU21D;57460;47.134;19.888;2023-12-04T12:29:34;4.28;54.14
70089;HTU21D;57460;47.134;19.888;2023-12-04T12:32:00;4.32;53.92
70089;HTU21D;57460;47.134;19.888;2023-12-04T12:34:26;4.14;55.29
70089;HTU21D;57460;47.134;19.888;2023-12-04T12:36:53;3.98;54.97
70089;HTU21D;57460;47.134;19.888;2023-12-04T12:39:18;4.07;54.99
70089;HTU21D;57460;47.134;19.888;2023-12-04T12:41:51;4.00;54.26
70089;HTU21D;57460;47.134;19.888;2023-12-04T12:44:17;3.99;53.37
70089;HTU21D;57460;47.134;19.888;2023-12-04T12:46:50;3.86;52.54
70089;HTU21D;57460;47.134;19.888;2023-12-04T12:49:19;3.85;54.02
70089;HTU21D;57460;47.134;19.888;2023-12-04T12:51:48;3.80;55.00
70089;HTU21D;57460;47.134;19.888;2023-12-04T12:54:14;3.83;55.26
70089;HTU21D;57460;47.134;19.888;2023-12-04T12:56:40;3.88;54.18
70089;HTU21D;57460;47.134;19.888;2023-12-04T12:59:06;3.75;54.47
70089;HTU21D;57460;47.134;19.888;2023-12-04T13:01:33;3.59;53.91
70089;HTU21D;57460;47.134;19.888;2023-12-04T13:04:00;3.43;53.88
70089;HTU21D;57460;47.134;19.888;2023-12-04T13:06:26;3.43;55.84
70089;HTU21D;57460;47.134;19.888;2023-12-04T13:08:51;3.41;55.04
70089;HTU21D;57460;47.134;19.888;2023-12-04T13:11:17;3.42;55.68
70089;HTU21D;57460;47.134;19.888;2023-12-04T13:13:44;3.40;55.49
70089;HTU21D;57460;47.134;19.888;2023-12-04T13:16:10;3.33;56.00
70089;HTU21D;57460;47.134;19.888;2023-12-04T13:18:36;3.24;55.91
70089;HTU21D;57460;47.134;19.888;2023-12-04T13:21:04;3.12;55.11
70089;HTU21D;57460;47.134;19.888;2023-12-04T13:23:30;3.13;56.74
70089;HTU21D;57460;47.134;19.888;2023-12-04T13:25:55;3.13;56.69
70089;HTU21D;57460;47.134;19.888;2023-12-04T13:28:21;3.14;56.74
70089;HTU21D;57460;47.134;19.888;2023-12-04T13:30:47;3.06;56.40
70089;HTU21D;57460;47.134;19.888;2023-12-04T13:33:13;2.91;56.77
70089;HTU21D;57460;47.134;19.888;2023-12-04T13:35:39;2.82;57.51
70089;HTU21D;57460;47.134;19.888;2023-12-04T13:38:05;2.89;57.44
70089;HTU21D;57460;47.134;19.888;2023-12-04T13:40:41;2.87;57.53
70089;HTU21D;57460;47.134;19.888;2023-12-04T13:43:07;2.81;57.55
70089;HTU21D;57460;47.134;19.888;2023-12-04T13:45:51;2.78;57.90
70089;HTU21D;57460;47.134;19.888;2023-12-04T13:48:18;2.66;58.45
70089;HTU21D;57460;47.134;19.888;2023-12-04T13:50:46;2.57;58.09
70089;HTU21D;57460;47.134;19.888;2023-12-04T13:53:12;2.58;58.59
70089;HTU21D;57460;47.134;19.888;2023-12-04T13:55:40;2.50;59.20
70089;HTU21D;57460;47.134;19.888;2023-12-04T13:58:24;2.46;59.12
70089;HTU21D;57460;47.134;19.888;2023-12-04T14:01:10;2.32;59.39
70089;HTU21D;57460;47.134;19.888;2023-12-04T14:03:43;2.34;59.83
70089;HTU21D;57460;47.134;19.888;2023-12-04T14:06:10;2.27;59.87
70089;HTU21D;57460;47.134;19.888;2023-12-04T14:08:36;2.30;59.67
70089;HTU21D;57460;47.134;19.888;2023-12-04T14:11:03;2.22;59.73
70089;HTU21D;57460;47.134;19.888;2023-12-04T14:13:32;2.23;59.87
70089;HTU21D;57460;47.134;19.888;2023-12-04T14:15:59;2.23;60.44
70089;HTU21D;57460;47.134;19.888;2023-12-04T14:18:24;2.22;60.43
70089;HTU21D;57460;47.134;19.888;2023-12-04T14:20:51;2.23;60.14
70089;HTU21D;57460;47.134;19.888;2023-12-04T14:23:17;2.19;61.04
70089;HTU21D;57460;47.134;19.888;2023-12-04T14:25:45;2.12;60.48
70089;HTU21D;57460;47.134;19.888;2023-12-04T14:28:11;2.06;61.09
70089;HTU21D;57460;47.134;19.888;2023-12-04T14:30:37;2.02;60.98
70089;HTU21D;57460;47.134;19.888;2023-12-04T14:33:03;2.00;60.92
70089;HTU21D;57460;47.134;19.888;2023-12-04T14:35:28;1.94;60.96
70089;HTU21D;57460;47.134;19.888;2023-12-04T14:37:55;1.88;61.39
70089;HTU21D;57460;47.134;19.888;2023-12-04T14:40:20;1.79;61.48
70089;HTU21D;57460;47.134;19.888;2023-12-04T14:42:46;1.75;61.72
70089;HTU21D;57460;47.134;19.888;2023-12-04T14:45:13;1.75;61.50
70089;HTU21D;57460;47.134;19.888;2023-12-04T14:47:39;1.72;61.73
70089;HTU21D;57460;47.134;19.888;2023-12-04T14:50:06;1.72;61.97
70089;HTU21D;57460;47.134;19.888;2023-12-04T14:52:33;1.66;62.54
70089;HTU21D;57460;47.134;19.888;2023-12-04T14:55:00;1.58;62.80
70089;HTU21D;57460;47.134;19.888;2023-12-04T14:57:34;1.53;63.22
70089;HTU21D;57460;47.134;19.888;2023-12-04T15:00:10;1.51;63.00
70089;HTU21D;57460;47.134;19.888;2023-12-04T15:02:54;1.49;63.99
70089;HTU21D;57460;47.134;19.888;2023-12-04T15:05:38;1.46;64.18
70089;HTU21D;57460;47.134;19.888;2023-12-04T15:08:29;1.43;64.35